sensor_id;sensor_type;location;lat;lon;timestamp;temperature;humidity
38118;DHT22;23928;47.562;7.508;2023-04-03T00:01:06;5.60;99.90
38118;DHT22;23928;47.562;7.508;2023-04-03T00:03:32;5.60;99.90
38118;DHT22;23928;47.562;7.508;2023-04-03T00:05:58;5.60;99.90
38118;DHT22;23928;47.562;7.508;2023-04-03T00:08:24;5.50;99.90
38118;DHT22;23928;47.562;7.508;2023-04-03T00:10:50;5.50;99.90
38118;DHT22;23928;47.562;7.508;2023-04-03T00:13:15;5.60;99.90
38118;DHT22;23928;47.562;7.508;2023-04-03T00:15:41;5.60;99.90
38118;DHT22;23928;47.562;7.508;2023-04-03T00:18:08;5.50;99.90
38118;DHT22;23928;47.562;7.508;2023-04-03T00:20:33;5.60;99.90
38118;DHT22;23928;47.562;7.508;2023-04-03T00:23:00;5.50;99.90
38118;DHT22;23928;47.562;7.508;2023-04-03T00:25:26;5.50;99.90
38118;DHT22;23928;47.562;7.508;2023-04-03T00:27:52;5.50;99.90
38118;DHT22;23928;47.562;7.508;2023-04-03T00:30:19;5.20;99.90
38118;DHT22;23928;47.562;7.508;2023-04-03T00:32:48;5.30;99.90
38118;DHT22;23928;47.562;7.508;2023-04-03T00:35:13;5.30;99.90
38118;DHT22;23928;47.562;7.508;2023-04-03T00:37:41;5.30;99.90
38118;DHT22;23928;47.562;7.508;2023-04-03T00:40:08;5.30;99.90
38118;DHT22;23928;47.562;7.508;2023-04-03T00:42:36;5.20;99.90
38118;DHT22;23928;47.562;7.508;2023-04-03T00:47:28;5.10;99.90
38118;DHT22;23928;47.562;7.508;2023-04-03T00:49:54;5.00;99.90
38118;DHT22;23928;47.562;7.508;2023-04-03T00:52:25;5.10;99.90
38118;DHT22;23928;47.562;7.508;2023-04-03T00:54:54;4.90;99.90
38118;DHT22;23928;47.562;7.508;2023-04-03T00:57:22;5.00;99.90
38118;DHT22;23928;47.562;7.508;2023-04-03T00:59:50;4.90;99.90
38118;DHT22;23928;47.562;7.508;2023-04-03T01:02:17;5.00;99.90
38118;DHT22;23928;47.562;7.508;2023-04-03T01:04:44;5.00;99.90
38118;DHT22;23928;47.562;7.508;2023-04-03T01:09:38;4.80;99.90
38118;DHT22;23928;47.562;7.508;2023-04-03T01:12:18;5.00;99.90
38118;DHT22;23928;47.562;7.508;2023-04-03T01:14:45;4.90;99.90
38118;DHT22;23928;47.562;7.508;2023-04-03T01:17:40;4.90;99.90
38118;DHT22;23928;47.562;7.508;2023-04-03T01:25:26;5.10;99.90
38118;DHT22;23928;47.562;7.508;2023-04-03T01:27:51;5.20;99.90
38118;DHT22;23928;47.562;7.508;2023-04-03T01:30:19;5.30;99.90
38118;DHT22;23928;47.562;7.508;2023-04-03T01:32:46;5.40;99.90
38118;DHT22;23928;47.562;7.508;2023-04-03T01:35:12;5.40;99.90
38118;DHT22;23928;47.562;7.508;2023-04-03T01:37:38;5.00;99.90
38118;DHT22;23928;47.562;7.508;2023-04-03T01:40:04;5.10;99.90
38118;DHT22;23928;47.562;7.508;2023-04-03T01:42:30;5.00;99.90
38118;DHT22;23928;47.562;7.508;2023-04-03T01:44:56;4.90;99.90
38118;DHT22;23928;47.562;7.508;2023-04-03T01:47:22;4.80;99.90
38118;DHT22;23928;47.562;7.508;2023-04-03T01:49:47;4.70;99.90
38118;DHT22;23928;47.562;7.508;2023-04-03T01:52:13;4.50;99.90
38118;DHT22;23928;47.562;7.508;2023-04-03T01:54:38;4.60;99.90
38118;DHT22;23928;47.562;7.508;2023-04-03T01:57:04;4.80;99.90
38118;DHT22;23928;47.562;7.508;2023-04-03T01:59:30;4.70;99.90
38118;DHT22;23928;47.562;7.508;2023-04-03T02:01:56;4.70;99.90
38118;DHT22;23928;47.562;7.508;2023-04-03T02:04:22;4.50;99.90
38118;DHT22;23928;47.562;7.508;2023-04-03T02:06:47;4.50;99.90
38118;DHT22;23928;47.562;7.508;2023-04-03T02:09:13;4.40;99.90
38118;DHT22;23928;47.562;7.508;2023-04-03T02:11:39;4.50;99.90
38118;DHT22;23928;47.562;7.508;2023-04-03T02:14:05;4.50;99.90
38118;DHT22;23928;47.562;7.508;2023-04-03T02:16:30;4.50;99.90
38118;DHT22;23928;47.562;7.508;2023-04-03T02:18:56;4.60;99.90
38118;DHT22;23928;47.562;7.508;2023-04-03T02:21:22;4.50;99.90
38118;DHT22;23928;47.562;7.508;2023-04-03T02:23:47;4.80;99.90
38118;DHT22;23928;47.562;7.508;2023-04-03T02:26:14;4.50;99.90
38118;DHT22;23928;47.562;7.508;2023-04-03T02:28:41;4.30;99.90
38118;DHT22;23928;47.562;7.508;2023-04-03T02:31:07;4.40;99.90
38118;DHT22;23928;47.562;7.508;2023-04-03T02:33:34;4.30;99.90
38118;DHT22;23928;47.562;7.508;2023-04-03T02:36:03;4.20;99.90
38118;DHT22;23928;47.562;7.508;2023-04-03T02:38:28;4.20;99.90
38118;DHT22;23928;47.562;7.508;2023-04-03T02:41:03;4.30;99.90
38118;DHT22;23928;47.562;7.508;2023-04-03T02:43:29;4.40;99.90
38118;DHT22;23928;47.562;7.508;2023-04-03T02:45:55;4.60;99.90
38118;DHT22;23928;47.562;7.508;2023-04-03T02:48:21;4.60;99.90
38118;DHT22;23928;47.562;7.508;2023-04-03T02:50:48;4.40;99.90
38118;DHT22;23928;47.562;7.508;2023-04-03T02:53:13;4.20;99.90
38118;DHT22;23928;47.562;7.508;2023-04-03T02:55:39;4.50;99.90
38118;DHT22;23928;47.562;7.508;2023-04-03T02:58:05;4.40;99.90
38118;DHT22;23928;47.562;7.508;2023-04-03T03:00:31;4.30;99.90
38118;DHT22;23928;47.562;7.508;2023-04-03T03:02:56;4.30;99.90
38118;DHT22;23928;47.562;7.508;2023-04-03T03:05:22;4.60;99.90
38118;DHT22;23928;47.562;7.508;2023-04-03T03:07:48;4.70;99.90
38118;DHT22;23928;47.562;7.508;2023-04-03T03:10:13;4.40;99.90
38118;DHT22;23928;47.562;7.508;2023-04-03T03:12:39;4.50;99.90
38118;DHT22;23928;47.562;7.508;2023-04-03T03:15:06;4.70;99.90
38118;DHT22;23928;47.562;7.508;2023-04-03T03:17:32;4.70;99.90
38118;DHT22;23928;47.562;7.508;2023-04-03T03:19:58;4.70;99.90
38118;DHT22;23928;47.562;7.508;2023-04-03T03:22:23;4.80;99.90
38118;DHT22;23928;47.562;7.508;2023-04-03T03:24:49;4.80;99.90
38118;DHT22;23928;47.562;7.508;2023-04-03T03:27:15;4.80;99.90
38118;DHT22;23928;47.562;7.508;2023-04-03T03:29:41;4.80;99.90
38118;DHT22;23928;47.562;7.508;2023-04-03T03:32:07;4.40;99.90
38118;DHT22;23928;47.562;7.508;2023-04-03T03:34:33;4.40;99.90
38118;DHT22;23928;47.562;7.508;2023-04-03T03:36:58;4.60;99.90
38118;DHT22;23928;47.562;7.508;2023-04-03T03:39:24;4.60;99.90
38118;DHT22;23928;47.562;7.508;2023-04-03T03:41:50;4.70;99.90
38118;DHT22;23928;47.562;7.508;2023-04-03T03:44:15;4.60;99.90
38118;DHT22;23928;47.562;7.508;2023-04-03T03:46:42;4.50;99.90
38118;DHT22;23928;47.562;7.508;2023-04-03T03:49:07;4.60;99.90
38118;DHT22;23928;47.562;7.508;2023-04-03T03:51:33;4.30;99.90
38118;DHT22;23928;47.562;7.508;2023-04-03T03:53:58;4.30;99.90
38118;DHT22;23928;47.562;7.508;2023-04-03T03:56:24;4.40;99.90
38118;DHT22;23928;47.562;7.508;2023-04-03T03:58:50;4.50;99.90
38118;DHT22;23928;47.562;7.508;2023-04-03T04:01:16;4.60;99.90
38118;DHT22;23928;47.562;7.508;2023-04-03T04:03:42;4.40;99.90
38118;DHT22;23928;47.562;7.508;2023-04-03T04:06:08;4.50;99.90
38118;DHT22;23928;47.562;7.508;2023-04-03T04:08:33;4.20;99.90
38118;DHT22;23928;47.562;7.508;2023-04-03T04:10:59;4.10;99.90
38118;DHT22;23928;47.562;7.508;2023-04-03T04:13:25;4.00;99.90
38118;DHT22;23928;47.562;7.508;2023-04-03T04:15:50;4.10;99.90
38118;DHT22;23928;47.562;7.508;2023-04-03T04:18:16;3.90;99.90
38118;DHT22;23928;47.562;7.508;2023-04-03T04:20:45;3.90;99.90
38118;DHT22;23928;47.562;7.508;2023-04-03T04:23:11;4.00;99.90
38118;DHT22;23928;47.562;7.508;2023-04-03T04:25:36;4.00;99.90
38118;DHT22;23928;47.562;7.508;2023-04-03T04:28:02;4.00;99.90
38118;DHT22;23928;47.562;7.508;2023-04-03T04:30:28;4.10;99.90
38118;DHT22;23928;47.562;7.508;2023-04-03T04:32:53;4.10;99.90
38118;DHT22;23928;47.562;7.508;2023-04-03T04:35:19;4.00;99.90
38118;DHT22;23928;47.562;7.508;2023-04-03T04:37:45;3.90;99.90
38118;DHT22;23928;47.562;7.508;2023-04-03T04:40:11;3.80;99.90
38118;DHT22;23928;47.562;7.508;2023-04-03T04:42:37;3.80;99.90
38118;DHT22;23928;47.562;7.508;2023-04-03T04:45:03;3.90;99.90
38118;DHT22;23928;47.562;7.508;2023-04-03T04:47:29;3.80;99.90
38118;DHT22;23928;47.562;7.508;2023-04-03T04:49:55;3.80;99.90
38118;DHT22;23928;47.562;7.508;2023-04-03T04:52:20;3.90;99.90
38118;DHT22;23928;47.562;7.508;2023-04-03T04:54:46;3.90;99.90
38118;DHT22;23928;47.562;7.508;2023-04-03T04:57:12;4.00;99.90
38118;DHT22;23928;47.562;7.508;2023-04-03T04:59:37;4.00;99.90
38118;DHT22;23928;47.562;7.508;2023-04-03T05:02:03;4.50;99.90
38118;DHT22;23928;47.562;7.508;2023-04-03T05:04:29;4.40;99.90
38118;DHT22;23928;47.562;7.508;2023-04-03T05:06:54;4.50;99.90
38118;DHT22;23928;47.562;7.508;2023-04-03T05:09:20;4.10;99.90
38118;DHT22;23928;47.562;7.508;2023-04-03T05:11:46;4.30;99.90
38118;DHT22;23928;47.562;7.508;2023-04-03T05:14:12;4.30;99.90
38118;DHT22;23928;47.562;7.508;2023-04-03T05:16:38;4.20;99.90
38118;DHT22;23928;47.562;7.508;2023-04-03T05:19:04;4.00;99.90
38118;DHT22;23928;47.562;7.508;2023-04-03T05:21:29;4.30;99.90
38118;DHT22;23928;47.562;7.508;2023-04-03T05:23:58;4.40;99.90
38118;DHT22;23928;47.562;7.508;2023-04-03T05:26:24;4.30;99.90
38118;DHT22;23928;47.562;7.508;2023-04-03T05:28:51;4.00;99.90
38118;DHT22;23928;47.562;7.508;2023-04-03T05:31:17;4.10;99.90
38118;DHT22;23928;47.562;7.508;2023-04-03T05:33:42;4.00;99.90
38118;DHT22;23928;47.562;7.508;2023-04-03T05:36:08;3.80;99.90
38118;DHT22;23928;47.562;7.508;2023-04-03T05:38:34;3.70;99.90
38118;DHT22;23928;47.562;7.508;2023-04-03T05:41:00;3.60;99.90
38118;DHT22;23928;47.562;7.508;2023-04-03T05:43:25;3.80;99.90
38118;DHT22;23928;47.562;7.508;2023-04-03T05:45:52;3.80;99.90
38118;DHT22;23928;47.562;7.508;2023-04-03T05:48:17;3.80;99.90
38118;DHT22;23928;47.562;7.508;2023-04-03T05:50:43;4.00;99.90
38118;DHT22;23928;47.562;7.508;2023-04-03T05:53:21;4.00;99.90
38118;DHT22;23928;47.562;7.508;2023-04-03T05:55:47;3.70;99.90
38118;DHT22;23928;47.562;7.508;2023-04-03T05:58:13;3.80;99.90
38118;DHT22;23928;47.562;7.508;2023-04-03T06:00:39;3.90;99.90
38118;DHT22;23928;47.562;7.508;2023-04-03T06:03:05;3.70;99.90
38118;DHT22;23928;47.562;7.508;2023-04-03T06:05:31;3.90;99.90
38118;DHT22;23928;47.562;7.508;2023-04-03T06:07:57;3.70;99.90
38118;DHT22;23928;47.562;7.508;2023-04-03T06:10:23;3.70;99.90
38118;DHT22;23928;47.562;7.508;2023-04-03T06:12:48;3.80;99.90
38118;DHT22;23928;47.562;7.508;2023-04-03T06:15:14;3.80;99.90
38118;DHT22;23928;47.562;7.508;2023-04-03T06:17:40;4.00;99.90
38118;DHT22;23928;47.562;7.508;2023-04-03T06:20:06;3.90;99.90
38118;DHT22;23928;47.562;7.508;2023-04-03T06:22:31;3.90;99.90
38118;DHT22;23928;47.562;7.508;2023-04-03T06:24:57;3.70;99.90
38118;DHT22;23928;47.562;7.508;2023-04-03T06:27:23;3.70;99.90
38118;DHT22;23928;47.562;7.508;2023-04-03T06:29:49;3.60;99.90
38118;DHT22;23928;47.562;7.508;2023-04-03T06:32:16;3.50;99.90
38118;DHT22;23928;47.562;7.508;2023-04-03T06:34:41;3.60;99.90
38118;DHT22;23928;47.562;7.508;2023-04-03T06:37:17;3.70;99.90
38118;DHT22;23928;47.562;7.508;2023-04-03T06:39:43;3.70;99.90
38118;DHT22;23928;47.562;7.508;2023-04-03T06:42:10;3.60;99.90
38118;DHT22;23928;47.562;7.508;2023-04-03T06:44:36;3.40;99.90
38118;DHT22;23928;47.562;7.508;2023-04-03T06:47:02;3.40;99.90
38118;DHT22;23928;47.562;7.508;2023-04-03T06:49:28;3.30;99.90
38118;DHT22;23928;47.562;7.508;2023-04-03T06:51:54;3.30;99.90
38118;DHT22;23928;47.562;7.508;2023-04-03T06:54:20;3.60;99.90
38118;DHT22;23928;47.562;7.508;2023-04-03T06:56:46;3.30;99.90
38118;DHT22;23928;47.562;7.508;2023-04-03T06:59:12;3.60;99.90
38118;DHT22;23928;47.562;7.508;2023-04-03T07:01:39;3.80;99.90
38118;DHT22;23928;47.562;7.508;2023-04-03T07:04:04;3.70;99.90
38118;DHT22;23928;47.562;7.508;2023-04-03T07:06:31;3.60;99.90
38118;DHT22;23928;47.562;7.508;2023-04-03T07:08:58;3.70;99.90
38118;DHT22;23928;47.562;7.508;2023-04-03T07:11:24;3.60;99.90
38118;DHT22;23928;47.562;7.508;2023-04-03T07:13:50;3.70;99.90
38118;DHT22;23928;47.562;7.508;2023-04-03T07:16:16;3.50;99.90
38118;DHT22;23928;47.562;7.508;2023-04-03T07:18:42;3.70;99.90
38118;DHT22;23928;47.562;7.508;2023-04-03T07:21:07;3.60;99.90
38118;DHT22;23928;47.562;7.508;2023-04-03T07:23:33;3.50;99.90
38118;DHT22;23928;47.562;7.508;2023-04-03T07:25:59;3.50;99.90
38118;DHT22;23928;47.562;7.508;2023-04-03T07:28:25;3.50;99.90
38118;DHT22;23928;47.562;7.508;2023-04-03T07:31:15;3.60;99.90
38118;DHT22;23928;47.562;7.508;2023-04-03T07:33:43;3.70;99.90
38118;DHT22;23928;47.562;7.508;2023-04-03T07:36:09;3.60;99.90
38118;DHT22;23928;47.562;7.508;2023-04-03T07:38:35;3.70;99.90
38118;DHT22;23928;47.562;7.508;2023-04-03T07:41:01;3.70;99.90
38118;DHT22;23928;47.562;7.508;2023-04-03T07:43:27;3.70;99.90
38118;DHT22;23928;47.562;7.508;2023-04-03T07:45:53;3.70;99.90
38118;DHT22;23928;47.562;7.508;2023-04-03T07:48:24;3.80;99.90
38118;DHT22;23928;47.562;7.508;2023-04-03T07:50:50;3.80;99.90
38118;DHT22;23928;47.562;7.508;2023-04-03T07:53:16;3.90;99.90
38118;DHT22;23928;47.562;7.508;2023-04-03T07:55:42;3.80;99.90
38118;DHT22;23928;47.562;7.508;2023-04-03T07:58:11;3.80;99.90
38118;DHT22;23928;47.562;7.508;2023-04-03T08:00:38;3.60;99.90
38118;DHT22;23928;47.562;7.508;2023-04-03T08:03:05;3.80;99.90
38118;DHT22;23928;47.562;7.508;2023-04-03T08:05:36;3.90;99.90
38118;DHT22;23928;47.562;7.508;2023-04-03T08:08:02;4.00;99.90
38118;DHT22;23928;47.562;7.508;2023-04-03T08:10:30;4.00;99.90
38118;DHT22;23928;47.562;7.508;2023-04-03T08:12:55;4.10;99.90
38118;DHT22;23928;47.562;7.508;2023-04-03T08:15:21;4.20;99.90
38118;DHT22;23928;47.562;7.508;2023-04-03T08:17:47;4.00;99.90
38118;DHT22;23928;47.562;7.508;2023-04-03T08:20:12;4.00;99.90
38118;DHT22;23928;47.562;7.508;2023-04-03T08:22:38;4.10;99.90
38118;DHT22;23928;47.562;7.508;2023-04-03T08:25:04;4.60;99.90
38118;DHT22;23928;47.562;7.508;2023-04-03T08:27:30;4.70;99.90
38118;DHT22;23928;47.562;7.508;2023-04-03T08:29:56;4.70;99.90
38118;DHT22;23928;47.562;7.508;2023-04-03T08:32:22;4.50;99.90
38118;DHT22;23928;47.562;7.508;2023-04-03T08:34:48;4.50;99.90
38118;DHT22;23928;47.562;7.508;2023-04-03T08:37:14;4.50;99.90
38118;DHT22;23928;47.562;7.508;2023-04-03T08:39:41;4.70;99.90
38118;DHT22;23928;47.562;7.508;2023-04-03T08:48:21;5.10;99.90
38118;DHT22;23928;47.562;7.508;2023-04-03T08:51:00;4.80;99.90
38118;DHT22;23928;47.562;7.508;2023-04-03T08:53:32;4.50;99.90
38118;DHT22;23928;47.562;7.508;2023-04-03T08:56:04;4.50;99.90
38118;DHT22;23928;47.562;7.508;2023-04-03T08:58:41;4.60;99.90
38118;DHT22;23928;47.562;7.508;2023-04-03T09:01:23;4.70;99.90
38118;DHT22;23928;47.562;7.508;2023-04-03T09:03:51;4.60;99.90
38118;DHT22;23928;47.562;7.508;2023-04-03T09:06:26;4.80;99.90
38118;DHT22;23928;47.562;7.508;2023-04-03T09:09:10;4.90;99.90
38118;DHT22;23928;47.562;7.508;2023-04-03T09:23:47;4.90;99.90
38118;DHT22;23928;47.562;7.508;2023-04-03T09:26:23;5.00;99.90
38118;DHT22;23928;47.562;7.508;2023-04-03T09:28:53;5.10;99.90
38118;DHT22;23928;47.562;7.508;2023-04-03T09:31:23;5.30;99.90
38118;DHT22;23928;47.562;7.508;2023-04-03T09:33:50;5.20;99.90
38118;DHT22;23928;47.562;7.508;2023-04-03T09:36:58;5.40;99.90
38118;DHT22;23928;47.562;7.508;2023-04-03T09:39:28;5.90;99.90
38118;DHT22;23928;47.562;7.508;2023-04-03T09:42:24;5.70;99.90
38118;DHT22;23928;47.562;7.508;2023-04-03T09:45:01;5.70;99.90
38118;DHT22;23928;47.562;7.508;2023-04-03T09:47:35;6.00;99.90
38118;DHT22;23928;47.562;7.508;2023-04-03T09:52:46;6.60;99.90
38118;DHT22;23928;47.562;7.508;2023-04-03T09:55:25;6.30;99.90
38118;DHT22;23928;47.562;7.508;2023-04-03T09:58:02;6.50;99.90
38118;DHT22;23928;47.562;7.508;2023-04-03T10:00:30;6.50;99.90
38118;DHT22;23928;47.562;7.508;2023-04-03T10:02:58;6.50;99.90
38118;DHT22;23928;47.562;7.508;2023-04-03T10:05:44;6.40;99.90
38118;DHT22;23928;47.562;7.508;2023-04-03T10:10:40;6.20;99.90
38118;DHT22;23928;47.562;7.508;2023-04-03T10:13:14;6.20;99.90
38118;DHT22;23928;47.562;7.508;2023-04-03T10:16:08;6.30;99.90
38118;DHT22;23928;47.562;7.508;2023-04-03T10:21:48;6.10;99.90
38118;DHT22;23928;47.562;7.508;2023-04-03T10:24:28;6.30;99.90
38118;DHT22;23928;47.562;7.508;2023-04-03T10:27:12;6.40;99.90
38118;DHT22;23928;47.562;7.508;2023-04-03T10:29:59;6.20;99.90
38118;DHT22;23928;47.562;7.508;2023-04-03T10:32:54;6.20;99.90
38118;DHT22;23928;47.562;7.508;2023-04-03T10:35:48;6.10;99.90
38118;DHT22;23928;47.562;7.508;2023-04-03T10:38:22;6.00;99.90
38118;DHT22;23928;47.562;7.508;2023-04-03T10:46:07;6.20;99.90
38118;DHT22;23928;47.562;7.508;2023-04-03T10:51:49;6.50;99.90
38118;DHT22;23928;47.562;7.508;2023-04-03T10:54:31;6.70;99.90
38118;DHT22;23928;47.562;7.508;2023-04-03T10:57:05;6.90;99.90
38118;DHT22;23928;47.562;7.508;2023-04-03T11:02:07;6.80;99.90
38118;DHT22;23928;47.562;7.508;2023-04-03T11:04:39;7.00;99.90
38118;DHT22;23928;47.562;7.508;2023-04-03T11:07:20;7.10;99.90
38118;DHT22;23928;47.562;7.508;2023-04-03T11:09:56;7.30;99.90
38118;DHT22;23928;47.562;7.508;2023-04-03T11:12:37;7.30;99.90
38118;DHT22;23928;47.562;7.508;2023-04-03T11:15:11;7.20;99.90
38118;DHT22;23928;47.562;7.508;2023-04-03T11:17:41;7.00;99.90
38118;DHT22;23928;47.562;7.508;2023-04-03T11:20:25;6.50;99.90
38118;DHT22;23928;47.562;7.508;2023-04-03T11:25:42;6.80;99.90
38118;DHT22;23928;47.562;7.508;2023-04-03T11:28:14;7.10;99.90
38118;DHT22;23928;47.562;7.508;2023-04-03T11:36:32;7.50;99.90
38118;DHT22;23928;47.562;7.508;2023-04-03T11:39:07;7.50;99.90
38118;DHT22;23928;47.562;7.508;2023-04-03T11:41:35;7.60;99.90
38118;DHT22;23928;47.562;7.508;2023-04-03T11:44:05;7.80;99.90
38118;DHT22;23928;47.562;7.508;2023-04-03T11:46:51;7.40;99.90
38118;DHT22;23928;47.562;7.508;2023-04-03T12:05:50;8.10;99.90
38118;DHT22;23928;47.562;7.508;2023-04-03T12:40:16;8.20;99.90
38118;DHT22;23928;47.562;7.508;2023-04-03T12:45:55;8.30;99.90
38118;DHT22;23928;47.562;7.508;2023-04-03T12:48:26;8.00;99.90
38118;DHT22;23928;47.562;7.508;2023-04-03T12:50:53;8.20;99.90
38118;DHT22;23928;47.562;7.508;2023-04-03T12:53:23;8.30;99.90
38118;DHT22;23928;47.562;7.508;2023-04-03T12:55:58;8.30;99.90
38118;DHT22;23928;47.562;7.508;2023-04-03T12:58:42;8.10;99.90
38118;DHT22;23928;47.562;7.508;2023-04-03T13:01:14;8.10;99.90
38118;DHT22;23928;47.562;7.508;2023-04-03T13:03:44;8.00;99.90
38118;DHT22;23928;47.562;7.508;2023-04-03T13:06:15;8.00;99.90
38118;DHT22;23928;47.562;7.508;2023-04-03T13:08:57;8.30;99.90
38118;DHT22;23928;47.562;7.508;2023-04-03T13:11:25;8.00;99.90
38118;DHT22;23928;47.562;7.508;2023-04-03T13:14:04;8.30;99.90
38118;DHT22;23928;47.562;7.508;2023-04-03T13:16:31;8.40;99.90
38118;DHT22;23928;47.562;7.508;2023-04-03T13:18:58;8.40;99.90
38118;DHT22;23928;47.562;7.508;2023-04-03T13:21:30;8.40;99.90
38118;DHT22;23928;47.562;7.508;2023-04-03T13:24:00;8.30;99.90
38118;DHT22;23928;47.562;7.508;2023-04-03T13:26:30;8.40;99.90
38118;DHT22;23928;47.562;7.508;2023-04-03T13:29:07;8.30;99.90
38118;DHT22;23928;47.562;7.508;2023-04-03T13:31:43;8.30;99.90
38118;DHT22;23928;47.562;7.508;2023-04-03T13:36:42;8.50;99.90
38118;DHT22;23928;47.562;7.508;2023-04-03T13:41:40;8.50;99.90
38118;DHT22;23928;47.562;7.508;2023-04-03T13:47:14;8.40;99.90
38118;DHT22;23928;47.562;7.508;2023-04-03T13:49:45;8.30;99.90
38118;DHT22;23928;47.562;7.508;2023-04-03T13:52:22;8.10;99.90
38118;DHT22;23928;47.562;7.508;2023-04-03T13:54:56;8.20;99.90
38118;DHT22;23928;47.562;7.508;2023-04-03T13:57:23;8.20;99.90
38118;DHT22;23928;47.562;7.508;2023-04-03T13:59:48;8.30;99.90
38118;DHT22;23928;47.562;7.508;2023-04-03T14:07:09;8.40;99.90
38118;DHT22;23928;47.562;7.508;2023-04-03T14:09:35;8.60;99.90
38118;DHT22;23928;47.562;7.508;2023-04-03T14:12:26;8.80;99.90
38118;DHT22;23928;47.562;7.508;2023-04-03T14:14:53;8.60;99.90
38118;DHT22;23928;47.562;7.508;2023-04-03T14:17:22;8.70;99.90
38118;DHT22;23928;47.562;7.508;2023-04-03T14:19:49;8.60;99.90
38118;DHT22;23928;47.562;7.508;2023-04-03T14:22:26;8.70;99.90
38118;DHT22;23928;47.562;7.508;2023-04-03T14:24:54;8.80;99.90
38118;DHT22;23928;47.562;7.508;2023-04-03T14:27:24;8.80;99.90
38118;DHT22;23928;47.562;7.508;2023-04-03T14:29:52;8.90;99.90
38118;DHT22;23928;47.562;7.508;2023-04-03T14:32:20;8.70;99.90
38118;DHT22;23928;47.562;7.508;2023-04-03T14:34:46;8.70;99.90
38118;DHT22;23928;47.562;7.508;2023-04-03T14:37:14;8.70;99.90
38118;DHT22;23928;47.562;7.508;2023-04-03T14:39:41;8.30;99.90
38118;DHT22;23928;47.562;7.508;2023-04-03T14:42:13;8.20;99.90
38118;DHT22;23928;47.562;7.508;2023-04-03T14:44:39;8.40;99.90
38118;DHT22;23928;47.562;7.508;2023-04-03T14:47:04;8.50;99.90
38118;DHT22;23928;47.562;7.508;2023-04-03T14:49:30;8.50;99.90
38118;DHT22;23928;47.562;7.508;2023-04-03T14:51:57;8.60;99.90
38118;DHT22;23928;47.562;7.508;2023-04-03T14:54:24;8.80;99.90
38118;DHT22;23928;47.562;7.508;2023-04-03T14:56:54;8.50;99.90
38118;DHT22;23928;47.562;7.508;2023-04-03T14:59:21;8.80;99.90
38118;DHT22;23928;47.562;7.508;2023-04-03T15:01:47;8.50;99.90
38118;DHT22;23928;47.562;7.508;2023-04-03T15:04:18;8.50;99.90
38118;DHT22;23928;47.562;7.508;2023-04-03T15:06:45;8.60;99.90
38118;DHT22;23928;47.562;7.508;2023-04-03T15:09:25;8.70;99.90
38118;DHT22;23928;47.562;7.508;2023-04-03T15:11:53;8.60;99.90
38118;DHT22;23928;47.562;7.508;2023-04-03T15:14:19;8.50;99.90
38118;DHT22;23928;47.562;7.508;2023-04-03T15:16:45;8.40;99.90
38118;DHT22;23928;47.562;7.508;2023-04-03T15:19:11;8.60;99.90
38118;DHT22;23928;47.562;7.508;2023-04-03T15:21:38;8.40;99.90
38118;DHT22;23928;47.562;7.508;2023-04-03T15:24:04;8.40;99.90
38118;DHT22;23928;47.562;7.508;2023-04-03T15:26:30;8.40;99.90
38118;DHT22;23928;47.562;7.508;2023-04-03T15:28:56;8.40;99.90
38118;DHT22;23928;47.562;7.508;2023-04-03T15:31:22;8.40;99.90
38118;DHT22;23928;47.562;7.508;2023-04-03T15:33:47;8.30;99.90
38118;DHT22;23928;47.562;7.508;2023-04-03T15:36:13;8.40;99.90
38118;DHT22;23928;47.562;7.508;2023-04-03T15:38:38;8.30;99.90
38118;DHT22;23928;47.562;7.508;2023-04-03T15:41:04;8.10;99.90
38118;DHT22;23928;47.562;7.508;2023-04-03T15:43:30;8.10;99.90
38118;DHT22;23928;47.562;7.508;2023-04-03T15:45:58;8.10;99.90
38118;DHT22;23928;47.562;7.508;2023-04-03T15:48:25;8.00;99.90
38118;DHT22;23928;47.562;7.508;2023-04-03T15:50:51;7.90;99.90
38118;DHT22;23928;47.562;7.508;2023-04-03T15:53:16;8.00;99.90
38118;DHT22;23928;47.562;7.508;2023-04-03T15:55:42;7.90;99.90
38118;DHT22;23928;47.562;7.508;2023-04-03T15:58:08;8.00;99.90
38118;DHT22;23928;47.562;7.508;2023-04-03T16:00:33;7.80;99.90
38118;DHT22;23928;47.562;7.508;2023-04-03T16:03:05;7.80;99.90
38118;DHT22;23928;47.562;7.508;2023-04-03T16:05:31;7.80;99.90
38118;DHT22;23928;47.562;7.508;2023-04-03T16:07:58;7.90;99.90
38118;DHT22;23928;47.562;7.508;2023-04-03T16:10:24;7.80;99.90
38118;DHT22;23928;47.562;7.508;2023-04-03T16:12:50;7.70;99.90
38118;DHT22;23928;47.562;7.508;2023-04-03T16:15:17;7.70;99.90
38118;DHT22;23928;47.562;7.508;2023-04-03T16:17:43;7.60;99.90
38118;DHT22;23928;47.562;7.508;2023-04-03T16:20:11;7.60;99.90
38118;DHT22;23928;47.562;7.508;2023-04-03T16:22:39;7.60;99.90
38118;DHT22;23928;47.562;7.508;2023-04-03T16:25:07;7.50;99.90
38118;DHT22;23928;47.562;7.508;2023-04-03T16:27:33;7.50;99.90
38118;DHT22;23928;47.562;7.508;2023-04-03T16:29:59;7.50;99.90
38118;DHT22;23928;47.562;7.508;2023-04-03T16:32:27;7.50;99.90
38118;DHT22;23928;47.562;7.508;2023-04-03T16:34:53;7.70;99.90
38118;DHT22;23928;47.562;7.508;2023-04-03T16:37:19;7.50;99.90
38118;DHT22;23928;47.562;7.508;2023-04-03T16:39:45;7.50;99.90
38118;DHT22;23928;47.562;7.508;2023-04-03T16:42:11;7.40;99.90
38118;DHT22;23928;47.562;7.508;2023-04-03T16:44:37;7.40;99.90
38118;DHT22;23928;47.562;7.508;2023-04-03T16:47:03;7.30;99.90
38118;DHT22;23928;47.562;7.508;2023-04-03T16:49:28;7.30;99.90
38118;DHT22;23928;47.562;7.508;2023-04-03T16:51:58;7.10;99.90
38118;DHT22;23928;47.562;7.508;2023-04-03T16:54:24;7.20;99.90
38118;DHT22;23928;47.562;7.508;2023-04-03T16:56:50;7.10;99.90
38118;DHT22;23928;47.562;7.508;2023-04-03T16:59:16;7.30;99.90
38118;DHT22;23928;47.562;7.508;2023-04-03T17:01:42;7.20;99.90
38118;DHT22;23928;47.562;7.508;2023-04-03T17:04:07;7.20;99.90
38118;DHT22;23928;47.562;7.508;2023-04-03T17:06:33;7.20;99.90
38118;DHT22;23928;47.562;7.508;2023-04-03T17:08:59;7.10;99.90
38118;DHT22;23928;47.562;7.508;2023-04-03T17:11:25;7.10;99.90
38118;DHT22;23928;47.562;7.508;2023-04-03T17:13:51;7.00;99.90
38118;DHT22;23928;47.562;7.508;2023-04-03T17:16:16;6.90;99.90
38118;DHT22;23928;47.562;7.508;2023-04-03T17:18:43;7.00;99.90
38118;DHT22;23928;47.562;7.508;2023-04-03T17:21:08;6.90;99.90
38118;DHT22;23928;47.562;7.508;2023-04-03T17:23:36;6.70;99.90
38118;DHT22;23928;47.562;7.508;2023-04-03T17:26:03;6.80;99.90
38118;DHT22;23928;47.562;7.508;2023-04-03T17:28:29;6.80;99.90
38118;DHT22;23928;47.562;7.508;2023-04-03T17:30:56;6.70;99.90
38118;DHT22;23928;47.562;7.508;2023-04-03T17:33:22;6.70;99.90
38118;DHT22;23928;47.562;7.508;2023-04-03T17:35:48;6.70;99.90
38118;DHT22;23928;47.562;7.508;2023-04-03T17:38:13;6.70;99.90
38118;DHT22;23928;47.562;7.508;2023-04-03T17:40:39;6.60;99.90
38118;DHT22;23928;47.562;7.508;2023-04-03T17:43:05;6.60;99.90
38118;DHT22;23928;47.562;7.508;2023-04-03T17:45:31;6.60;99.90
38118;DHT22;23928;47.562;7.508;2023-04-03T17:47:57;6.60;99.90
38118;DHT22;23928;47.562;7.508;2023-04-03T17:50:22;6.60;99.90
38118;DHT22;23928;47.562;7.508;2023-04-03T17:52:48;6.50;99.90